LHR weather

London Heathrow Airport
London, England, United Kingdom

Public forecast

Using degrees Celsius for public forecast. Weather courtesy of forecast.io.

METAR (pilot weather report)

Retrieved 2019/03/24 23:20 UTC (16 minutes ago):

EGLL 242320Z AUTO 28007KT 9999 NCD 06/02 Q1029 NOSIG

TAF (pilot weather forecast)

Retrieved 2019/03/24 18:18 UTC (5 hours ago):

TAF EGLL 241652Z 2418/2524 28010KT 9999 FEW045 BECMG 2506/2509 35012KT BECMG 2521/2524 VRB03KT